Etusivu
METAR-TAF:

METAR-TAF

Lentoasemat :

Shawano, Wisconsin, Yhdysvallat

Leveyspiiri: 44-47-14N, Pituuspiiri: 088-33-36W, korkeus merenpinnasta: 248 m

Tämänhetkinen sää

Tämä raportti tehtiin 11 minuuttia sitten, kello 11.55 UTC
Tuuli 11 kn lännestä puuskistuen 18 kn:hen
Lämpötila 1°C
Kosteus 69%
Ilmanpaine 1000 hPa
Näkyvyys: 16.1 km
selkeää

METAR: KEZS 211155Z AUTO 26011G18KT 10SM CLR 01/M04 A2953 RMK AO2 T00051042 10022 20003

Aika: 06:06 (12:06 UTC)


TAF: puuttuu

Säähavainnot ja -ennusteet yli 4000 lentoasemalta (METAR- ja TAF-raportit).

Käytössä olevat sääasemat on merkitty karttaan keltaisilla ja punaisilla pisteillä.

Aseta hiiri pisteen päälle nähdäksesi sääaseman nimen.

Klikkaa sitten nähdäksesi säähavainnot ja -ennusteet.

Kartan vaihtaminen: klikkaa mustalla rastilla varustettuja vihreitä pisteitä, niin voit zoomata sisään; viivalla varustettua vihreää pistettä, niin voit zoomata ulos tai vihreitä nuolia, niin pääset viereisille kartoille.


METAR-TAF: